createdAt,value
2023-03-01T00:03:48.844Z,1.7
2023-03-01T00:08:48.791Z,1.7
2023-03-01T00:13:48.801Z,1.6
2023-03-01T00:18:48.831Z,1.6
2023-03-01T00:23:48.793Z,1.5
2023-03-01T00:28:48.796Z,1.5
2023-03-01T00:33:48.880Z,1.4
2023-03-01T00:38:48.933Z,1.4
2023-03-01T00:43:48.876Z,1.3
2023-03-01T00:48:48.893Z,1.2
2023-03-01T00:53:48.883Z,1.2
2023-03-01T00:58:48.898Z,1.1
2023-03-01T01:03:48.880Z,1
2023-03-01T01:08:48.919Z,1
2023-03-01T01:13:48.905Z,1
2023-03-01T01:18:49.259Z,0.9
2023-03-01T01:23:48.888Z,0.9
2023-03-01T01:28:48.895Z,0.9
2023-03-01T01:33:48.906Z,0.9
2023-03-01T01:38:48.916Z,0.9
2023-03-01T01:43:48.896Z,0.8
2023-03-01T01:48:48.899Z,0.8
2023-03-01T01:53:48.898Z,0.7
2023-03-01T01:58:48.908Z,0.7
2023-03-01T02:03:48.992Z,0.7
2023-03-01T02:08:48.887Z,0.6
2023-03-01T02:13:48.909Z,0.6
2023-03-01T02:18:48.929Z,0.6
2023-03-01T02:23:49.029Z,0.6
2023-03-01T02:28:48.909Z,0.6
2023-03-01T02:33:48.970Z,0.6
2023-03-01T02:38:49.061Z,0.7
2023-03-01T02:43:48.938Z,0.7
2023-03-01T02:48:48.956Z,0.7
2023-03-01T02:53:48.973Z,0.6
2023-03-01T02:58:48.946Z,0.5
2023-03-01T03:03:48.995Z,0.5
2023-03-01T03:08:48.943Z,0.4
2023-03-01T03:13:49.185Z,0.4
2023-03-01T03:18:48.924Z,0.3
2023-03-01T03:23:48.946Z,0.2
2023-03-01T03:28:49.069Z,0.2
2023-03-01T03:33:48.924Z,0.2
2023-03-01T03:38:48.895Z,0.1
2023-03-01T03:43:48.896Z,0
2023-03-01T03:48:48.906Z,0
2023-03-01T03:53:48.927Z,-0.1
2023-03-01T03:58:48.900Z,-0.1
2023-03-01T04:03:48.901Z,-0.2
2023-03-01T04:08:48.908Z,-0.2
2023-03-01T04:13:48.932Z,-0.2
2023-03-01T04:18:48.925Z,-0.2
2023-03-01T04:23:48.920Z,-0.2
2023-03-01T04:28:48.897Z,-0.2
2023-03-01T04:33:48.962Z,-0.3
2023-03-01T04:38:48.910Z,-0.3
2023-03-01T04:43:48.934Z,-0.4
2023-03-01T04:48:48.992Z,-0.4
2023-03-01T04:53:48.979Z,-0.4
2023-03-01T04:58:48.970Z,-0.4
2023-03-01T05:03:48.973Z,-0.5
2023-03-01T05:08:49.000Z,-0.5
2023-03-01T05:13:49.002Z,-0.5
2023-03-01T05:18:49.018Z,-0.6
2023-03-01T05:23:48.972Z,-0.6
2023-03-01T05:28:48.975Z,-0.6
2023-03-01T05:33:48.994Z,-0.7
2023-03-01T05:38:48.986Z,-0.7
2023-03-01T05:43:48.970Z,-0.7
2023-03-01T05:48:48.979Z,-0.7
2023-03-01T05:53:48.991Z,-0.7
2023-03-01T05:58:49.098Z,-0.8
2023-03-01T06:03:49.100Z,-0.8
2023-03-01T06:08:48.980Z,-0.8
2023-03-01T06:13:49.007Z,-0.7
2023-03-01T06:18:49.013Z,-0.7
2023-03-01T06:23:49.000Z,-0.7
2023-03-01T06:28:49.010Z,-0.6
2023-03-01T06:33:49.004Z,-0.6
2023-03-01T06:38:49.014Z,-0.5
2023-03-01T06:43:48.990Z,-0.5
2023-03-01T06:48:48.985Z,-0.4
2023-03-01T06:53:49.008Z,-0.3
2023-03-01T06:58:48.992Z,-0.1
2023-03-01T07:03:48.972Z,0
2023-03-01T07:08:48.974Z,0.1
2023-03-01T07:13:49.017Z,0.2
2023-03-01T07:18:49.002Z,0.3
2023-03-01T07:23:48.983Z,0.4
2023-03-01T07:28:48.990Z,0.5
2023-03-01T07:33:49.529Z,0.7
2023-03-01T07:38:48.973Z,0.9
2023-03-01T07:43:48.986Z,1
2023-03-01T07:48:48.978Z,1.1
2023-03-01T07:53:49.095Z,1.3
2023-03-01T07:58:50.633Z,1.5
2023-03-01T08:03:49.010Z,1.6
2023-03-01T08:08:49.007Z,1.7
2023-03-01T08:13:51.333Z,1.9
2023-03-01T08:18:49.012Z,2
2023-03-01T08:23:49.175Z,2.2
2023-03-01T08:28:48.990Z,2.3
2023-03-01T08:33:49.028Z,2.4
2023-03-01T08:38:49.003Z,2.6
2023-03-01T08:43:49.025Z,2.8
2023-03-01T08:48:48.994Z,3
2023-03-01T08:53:49.006Z,3.2
2023-03-01T08:58:49.015Z,3.4
2023-03-01T09:03:49.123Z,3.6
2023-03-01T09:08:49.015Z,3.8
2023-03-01T09:13:49.021Z,4
2023-03-01T09:18:49.021Z,4.2
2023-03-01T09:23:48.995Z,4.4
2023-03-01T09:28:48.994Z,4.6
2023-03-01T09:33:49.051Z,4.8
2023-03-01T09:38:49.016Z,5
2023-03-01T09:43:49.006Z,5.2
2023-03-01T09:48:49.032Z,5.4
2023-03-01T09:53:49.049Z,5.6
2023-03-01T09:58:49.032Z,5.8
2023-03-01T10:03:49.025Z,6
2023-03-01T10:08:49.179Z,6.2
2023-03-01T10:13:49.044Z,6.4
2023-03-01T10:18:49.036Z,6.6
2023-03-01T10:23:49.003Z,6.8
2023-03-01T10:28:49.031Z,7
2023-03-01T10:33:49.056Z,7.2
2023-03-01T10:38:49.029Z,7.4
2023-03-01T10:43:49.005Z,7.6
2023-03-01T10:48:49.026Z,7.8
2023-03-01T10:53:49.042Z,8
2023-03-01T10:58:49.031Z,8.2
2023-03-01T11:03:49.004Z,8.4
2023-03-01T11:08:49.001Z,8.6
2023-03-01T11:13:49.029Z,8.9
2023-03-01T11:18:49.065Z,9.1
2023-03-01T11:23:49.018Z,9.3
2023-03-01T11:28:49.025Z,9.5
2023-03-01T11:33:49.048Z,9.6
2023-03-01T11:38:49.136Z,9.7
2023-03-01T11:43:49.004Z,9.8
2023-03-01T11:48:50.299Z,10
2023-03-01T11:53:49.191Z,10.2
2023-03-01T11:58:49.076Z,10.4
2023-03-01T12:03:49.036Z,10.6
2023-03-01T12:08:49.058Z,10.8
2023-03-01T12:13:49.177Z,11
2023-03-01T12:18:49.227Z,11.2
2023-03-01T12:23:49.096Z,11.4
2023-03-01T12:28:49.077Z,11.6
2023-03-01T12:33:49.108Z,11.8
2023-03-01T12:38:49.066Z,12
2023-03-01T12:43:49.054Z,12.2
2023-03-01T12:48:49.085Z,12.3
2023-03-01T12:53:49.088Z,12.5
2023-03-01T12:58:50.875Z,12.7
2023-03-01T13:03:49.103Z,12.8
2023-03-01T13:08:49.055Z,13
2023-03-01T13:13:49.115Z,13.2
2023-03-01T13:18:49.075Z,13.3
2023-03-01T13:23:49.054Z,13.5
2023-03-01T13:28:49.081Z,13.6
2023-03-01T13:33:49.090Z,13.7
2023-03-01T13:38:49.050Z,13.9
2023-03-01T13:43:49.073Z,14
2023-03-01T13:48:49.062Z,14.2
2023-03-01T13:53:49.138Z,14.4
2023-03-01T13:58:49.189Z,14.5
2023-03-01T14:03:49.092Z,14.7
2023-03-01T14:08:49.426Z,14.9
2023-03-01T14:13:49.068Z,15.1
2023-03-01T14:18:49.154Z,15.2
2023-03-01T14:23:49.059Z,15.3
2023-03-01T14:28:49.052Z,15.5
2023-03-01T14:33:49.063Z,15.5
2023-03-01T14:38:49.050Z,15.5
2023-03-01T14:43:49.058Z,15.6
2023-03-01T14:48:49.131Z,15.7
2023-03-01T14:53:51.120Z,15.8
2023-03-01T14:58:49.089Z,15.7
2023-03-01T15:03:49.068Z,15.7
2023-03-01T15:08:49.087Z,15.5
2023-03-01T15:13:49.118Z,15.2
2023-03-01T15:18:49.122Z,14.9
2023-03-01T15:23:49.076Z,14.5
2023-03-01T15:28:49.083Z,14.2
2023-03-01T15:33:49.116Z,14
2023-03-01T15:38:49.072Z,13.8
2023-03-01T15:43:49.090Z,13.6
2023-03-01T15:48:49.084Z,13.4
2023-03-01T15:53:54.170Z,13.2
2023-03-01T15:58:49.095Z,13
2023-03-01T16:03:49.121Z,12.8
2023-03-01T16:08:50.115Z,12.7
2023-03-01T16:13:49.176Z,12.5
2023-03-01T16:18:49.251Z,12.3
2023-03-01T16:23:49.128Z,12.1
2023-03-01T16:28:49.135Z,11.9
2023-03-01T16:33:49.137Z,11.8
2023-03-01T16:38:49.170Z,11.6
2023-03-01T16:43:49.226Z,11.4
2023-03-01T16:48:49.119Z,11.3
2023-03-01T16:53:49.147Z,11.1
2023-03-01T16:58:49.125Z,10.9
2023-03-01T17:03:49.120Z,10.8
2023-03-01T17:08:49.120Z,10.6
2023-03-01T17:13:49.249Z,10.5
2023-03-01T17:18:49.144Z,10.4
2023-03-01T17:23:49.111Z,10.3
2023-03-01T17:28:49.126Z,10.2
2023-03-01T17:33:49.169Z,10
2023-03-01T17:38:49.140Z,9.9
2023-03-01T17:43:49.176Z,9.7
2023-03-01T17:48:49.141Z,9.6
2023-03-01T17:53:49.180Z,9.4
2023-03-01T17:58:49.142Z,9.2
2023-03-01T18:03:49.147Z,9
2023-03-01T18:08:49.143Z,8.9
2023-03-01T18:13:49.349Z,8.7
2023-03-01T18:18:49.181Z,8.6
2023-03-01T18:23:49.127Z,8.5
2023-03-01T18:28:49.183Z,8.3
2023-03-01T18:33:49.278Z,8.2
2023-03-01T18:38:49.236Z,8
2023-03-01T18:43:49.175Z,7.8
2023-03-01T18:48:49.193Z,7.7
2023-03-01T18:53:49.198Z,7.5
2023-03-01T18:58:49.173Z,7.4
2023-03-01T19:03:49.173Z,7.2
2023-03-01T19:08:49.191Z,7.1
2023-03-01T19:13:49.433Z,7
2023-03-01T19:18:49.196Z,6.9
2023-03-01T19:23:49.188Z,6.8
2023-03-01T19:28:49.179Z,6.7
2023-03-01T19:33:49.355Z,6.6
2023-03-01T19:38:49.175Z,6.5
2023-03-01T19:43:49.178Z,6.3
2023-03-01T19:48:50.156Z,6.2
2023-03-01T19:53:49.355Z,6.2
2023-03-01T19:58:49.173Z,6.1
2023-03-01T20:03:49.149Z,6
2023-03-01T20:08:49.161Z,5.8
2023-03-01T20:13:49.188Z,5.7
2023-03-01T20:18:49.203Z,5.6
2023-03-01T20:23:49.164Z,5.6
2023-03-01T20:28:49.390Z,5.5
2023-03-01T20:33:49.310Z,5.4
2023-03-01T20:38:49.392Z,5.3
2023-03-01T20:43:49.215Z,5.3
2023-03-01T20:48:49.238Z,5.2
2023-03-01T20:53:49.247Z,5.1
2023-03-01T20:58:49.276Z,5.1
2023-03-01T21:03:49.611Z,5
2023-03-01T21:08:49.230Z,4.9
2023-03-01T21:13:49.241Z,4.9
2023-03-01T21:18:49.265Z,4.8
2023-03-01T21:23:49.232Z,4.7
2023-03-01T21:28:49.241Z,4.7
2023-03-01T21:33:49.260Z,4.6
2023-03-01T21:38:49.279Z,4.5
2023-03-01T21:43:49.265Z,4.5
2023-03-01T21:48:49.241Z,4.5
2023-03-01T21:53:49.281Z,4.4
2023-03-01T21:58:49.272Z,4.3
2023-03-01T22:03:49.233Z,4.2
2023-03-01T22:08:49.302Z,4.2
2023-03-01T22:13:49.440Z,4.1
2023-03-01T22:18:49.295Z,4.1
2023-03-01T22:23:49.297Z,4
2023-03-01T22:28:49.258Z,4
2023-03-01T22:33:49.356Z,3.9
2023-03-01T22:38:49.292Z,3.9
2023-03-01T22:43:49.313Z,3.8
2023-03-01T22:48:49.280Z,3.8
2023-03-01T22:53:49.286Z,3.8
2023-03-01T22:58:49.280Z,3.7
2023-03-01T23:03:49.384Z,3.6
2023-03-01T23:08:49.606Z,3.6
2023-03-01T23:13:49.298Z,3.6
2023-03-01T23:18:49.281Z,3.5
2023-03-01T23:23:49.282Z,3.5
2023-03-01T23:28:49.280Z,3.4
2023-03-01T23:33:49.311Z,3.2
2023-03-01T23:38:53.395Z,3.2
2023-03-01T23:43:49.472Z,3.1
2023-03-01T23:48:50.538Z,3
2023-03-01T23:53:49.283Z,3
2023-03-01T23:58:49.310Z,3.1
